Latest Weather Observations for White Cliffs AWS

IDN60801

Issued at 8:35 pm EDT Friday 28 November 2014 (issued every 30 minutes, with the page automatically refreshed every 10 minutes)

About weather observations | Map of weather stations | Latest weather observations for NSW | Other Formats
Station Details ID: 046129 Name: WHITE CLIFFS AWS Lat: -30.85 Lon: 143.07 Height: 158.0 m
Data from the previous 72 hours. | See also: Recent months at White Cliffs AWS
Date/Time
EDT
Temp
°C
App
Temp
°C
Dew
Point
Rel
Hum
%
Delta-T
°C
Wind Press
QNH
hPa
Press
MSL
hPa
Rain
since 9 am
mm
Dir
 
Spd
km/h
Gust
km/h
Spd
kts
Gust
kts
28/08:30pm 32.3 27.4 -0.7 12 15.9 SSE 15 19 8 10 1011.7 1010.9 0.0
28/08:00pm 32.9 27.8 0.9 13 15.9 SSE 17 20 9 11 1011.5 1010.7 0.0
28/07:30pm 33.5 29.2 1.3 13 16.2 SSE 13 24 7 13 1011.4 1010.6 0.0
28/07:00pm 33.7 29.7 0.4 12 16.5 ESE 11 15 6 8 1011.3 1010.5 0.0
28/06:30pm 34.4 29.9 -0.3 11 17.1 S 13 19 7 10 1011.2 1010.4 0.0
28/06:00pm 34.7 31.0 -0.1 11 17.3 E 9 15 5 8 1011.4 1010.6 0.0
28/05:30pm 34.7 29.5 -0.1 11 17.2 S 17 24 9 13 1011.6 1010.8 0.0
28/05:00pm 34.8 30.7 0.0 11 17.3 ESE 11 20 6 11 1011.8 1011.0 0.0
28/04:30pm 34.5 30.4 -0.2 11 17.1 E 11 19 6 10 1012.2 1011.4 0.0
28/04:00pm 34.2 29.7 -0.4 11 17.0 SE 13 19 7 10 1012.7 1011.9 0.0
28/03:30pm 34.8 29.2 0.0 11 17.3 SSW 19 28 10 15 1013.1 1012.3 0.0
28/03:00pm 33.8 29.6 1.6 13 16.3 ENE 13 26 7 14 1013.3 1012.5 0.0
28/02:30pm 33.0 29.4 0.9 13 16.0 ENE 9 17 5 9 1013.9 1013.1 0.0
28/02:00pm 33.0 28.7 0.9 13 16.0 NNE 13 20 7 11 1014.4 1013.6 0.0
28/01:30pm 33.3 29.7 3.2 15 15.6 E 11 24 6 13 1014.8 1014.0 0.0
28/01:00pm 31.9 27.9 3.0 16 14.8 S 13 26 7 14 1015.4 1014.6 0.0
28/12:30pm 32.7 28.3 2.7 15 15.4 ESE 15 22 8 12 1015.8 1015.1 0.0
28/12:00pm 32.4 27.2 2.5 15 15.2 S 19 26 10 14 1015.9 1015.2 0.0
28/11:30am 31.0 25.1 1.4 15 14.7 SSE 22 30 12 16 1016.3 1015.6 0.0
28/11:00am 30.4 24.1 1.8 16 14.2 S 24 32 13 17 1016.7 1015.9 0.0
28/10:30am 29.8 24.1 0.4 15 14.2 SE 20 30 11 16 1016.8 1016.0 0.0
28/10:00am 28.9 22.7 -0.3 15 13.8 ESE 22 28 12 15 1016.9 1016.1 0.0
28/09:30am 28.0 21.3 -1.0 15 13.5 SE 24 32 13 17 1016.8 1016.0 0.0
28/09:00am 26.8 19.9 -2.9 14 13.2 ESE 24 32 13 17 1016.9 1016.1 0.0
28/08:30am 26.5 19.8 -4.1 13 13.3 SE 22 28 12 15 1016.8 1016.0 0.0
28/08:00am 24.6 17.8 -5.6 13 12.5 SE 22 28 12 15 1016.9 1016.1 0.0
28/07:30am 23.2 16.8 -4.8 15 11.7 SE 20 28 11 15 1016.8 1016.0 0.0
28/07:00am 21.4 16.9 -3.1 19 10.4 ESE 11 15 6 8 1016.8 1016.0 0.0
28/06:30am 18.8 14.8 0.4 29 8.2 S 11 15 6 8 1016.2 1015.5 0.0
28/06:00am 19.1 14.3 0.2 28 8.4 S 15 17 8 9 1015.9 1015.2 0.0
28/05:30am 20.8 15.7 -1.7 22 9.8 SSE 15 17 8 9 1015.9 1015.2 0.0
28/05:00am 22.2 16.6 -3.2 18 10.8 SE 17 22 9 12 1015.6 1014.9 0.0
28/04:30am 21.6 16.2 -1.6 21 10.1 ESE 17 22 9 12 1015.4 1014.6 0.0
28/04:00am 23.3 16.8 -2.3 18 11.2 SE 22 30 12 16 1015.3 1014.5 0.0
28/03:30am 23.6 16.8 -2.1 18 11.3 SE 24 30 13 16 1015.4 1014.6 0.0
28/03:00am 23.8 17.2 -0.5 20 11.0 SE 24 28 13 15 1015.5 1014.7 0.0
28/02:30am 23.7 18.1 1.4 23 10.5 SSE 20 28 11 15 1015.8 1015.1 0.0
28/02:00am 23.8 18.2 3.2 26 10.0 SSE 22 26 12 14 1015.9 1015.2 0.0
28/01:30am 24.1 19.1 4.5 28 9.8 SSE 20 28 11 15 1016.2 1015.5 0.0
28/01:00am 24.3 19.8 4.1 27 10.0 SSE 17 24 9 13 1016.5 1015.7 0.0
28/12:30am 24.8 20.4 4.5 27 10.2 S 17 20 9 11 1016.8 1016.0 0.0
28/12:00am 25.1 21.0 4.3 26 10.4 S 15 20 8 11 1016.8 1016.0 0.0
 
Date/Time
EDT
Temp
°C
App
Temp
°C
Dew
Point
Rel
Hum
%
Delta-T
°C
Wind Press
QNH
hPa
Press
MSL
hPa
Rain
since 9 am
mm
Dir
 
Spd
km/h
Gust
km/h
Spd
kts
Gust
kts
27/11:30pm 26.0 21.1 3.9 24 11.1 SSE 19 26 10 14 1016.7 1015.9 0.0
27/11:00pm 26.6 21.6 3.8 23 11.4 SSE 19 24 10 13 1016.6 1015.8 0.0
27/10:30pm 27.1 22.1 3.6 22 11.8 SSE 19 22 10 12 1016.6 1015.8 0.0
27/10:00pm 27.9 22.8 2.9 20 12.5 SSE 19 24 10 13 1016.5 1015.7 0.0
27/09:30pm 28.2 23.4 2.4 19 12.8 SSE 17 20 9 11 1016.2 1015.5 0.0
27/09:00pm 28.9 24.2 3.0 19 13.0 SSE 17 22 9 12 1016.1 1015.4 0.0
27/08:30pm 29.5 24.3 2.7 18 13.5 SE 19 24 10 13 1016.0 1015.3 0.0
27/08:00pm 30.1 24.7 2.4 17 13.9 SSE 20 26 11 14 1015.7 1015.0 0.0
27/07:30pm 30.7 24.5 2.0 16 14.4 SSE 24 32 13 17 1015.6 1014.9 0.0
27/07:00pm 31.3 26.1 2.5 16 14.6 SE 19 26 10 14 1015.3 1014.5 0.0
27/06:30pm 31.9 26.9 1.1 14 15.3 SSE 17 33 9 18 1015.2 1014.4 0.0
27/06:00pm 32.0 26.6 1.2 14 15.3 SSE 19 30 10 16 1015.1 1014.3 0.0
27/05:30pm 31.4 25.9 0.7 14 15.1 SE 19 30 10 16 1015.1 1014.3 0.0
27/05:00pm 32.2 26.5 0.3 13 15.6 SSE 20 26 11 14 1015.3 1014.5 0.0
27/04:30pm 31.4 25.9 0.7 14 15.1 ESE 19 30 10 16 1015.7 1015.0 0.0
27/04:00pm 31.1 25.4 -0.5 13 15.2 SE 19 28 10 15 1016.2 1015.5 0.0
27/03:30pm 31.4 25.8 -0.3 13 15.3 S 19 24 10 13 1016.7 1015.9 0.0
27/03:00pm 30.6 25.3 -0.9 13 15.0 SSE 17 28 9 15 1016.9 1016.1 0.0
27/02:30pm 30.5 27.5 1.0 15 14.5 - 6 - 3 - 1017.4 1016.6 0.0
27/02:00pm 31.1 25.7 1.4 15 14.7 SSE 19 30 10 16 1017.7 1016.9 0.0
27/01:30pm 29.8 24.0 2.1 17 13.8 S 22 30 12 16 1018.0 1017.2 0.0
27/01:00pm 29.7 23.9 2.1 17 13.7 SSE 22 33 12 18 1018.5 1017.7 0.0
27/12:30pm 28.7 22.5 2.1 18 13.2 SE 24 50 13 27 1018.9 1018.1 0.0
27/12:27pm 29.3 21.6 2.5 18 13.4 SE 32 50 17 27 1018.9 1018.1 0.0
27/12:00pm 28.5 21.2 2.7 19 12.8 S 30 39 16 21 1019.2 1018.4 0.0
27/11:30am 27.9 22.1 2.2 19 12.7 SE 22 33 12 18 1019.6 1018.8 0.0
27/11:00am 27.2 21.4 2.3 20 12.2 SSE 22 33 12 18 1019.8 1019.0 0.0
27/10:30am 26.9 21.3 3.4 22 11.7 ESE 22 33 12 18 1019.9 1019.1 0.0
27/10:00am 26.3 19.8 2.9 22 11.5 SE 26 33 14 18 1019.8 1019.0 0.0
27/09:30am 25.3 19.3 3.3 24 10.9 ESE 24 35 13 19 1019.7 1018.9 0.0
27/09:00am 23.7 17.3 3.1 26 10.0 ESE 26 33 14 18 1019.7 1018.9 0.0
27/08:30am 22.8 17.1 2.8 27 9.6 ESE 22 30 12 16 1019.7 1018.9 0.0
27/08:00am 22.0 15.9 2.7 28 9.2 SE 24 32 13 17 1019.4 1018.6 0.0
27/07:30am 20.5 15.4 2.8 31 8.4 SSE 19 24 10 13 1019.1 1018.3 0.0
27/07:00am 18.8 13.6 2.6 34 7.5 SSE 19 22 10 12 1018.9 1018.1 0.0
27/06:30am 18.0 12.8 2.7 36 7.1 S 19 24 10 13 1018.5 1017.7 0.0
27/06:00am 18.1 13.0 2.8 36 7.1 S 19 20 10 11 1018.2 1017.4 0.0
27/05:30am 18.0 13.3 3.1 37 6.9 S 17 20 9 11 1017.9 1017.1 0.0
27/05:00am 18.4 13.3 3.1 36 7.1 S 19 22 10 12 1017.7 1016.9 0.0
27/04:30am 19.0 13.9 3.2 35 7.4 S 19 22 10 12 1017.4 1016.6 0.0
27/04:00am 18.5 14.2 3.2 36 7.2 S 15 19 8 10 1017.3 1016.5 0.0
27/03:30am 18.9 14.2 3.1 35 7.4 S 17 19 9 10 1017.4 1016.6 0.0
27/03:00am 19.0 14.9 2.4 33 7.7 S 13 17 7 9 1017.4 1016.6 0.0
27/02:30am 19.9 15.7 1.8 30 8.3 S 13 17 7 9 1017.4 1016.6 0.0
27/02:00am 21.3 16.4 2.1 28 9.0 SSE 17 19 9 10 1017.4 1016.6 0.0
27/01:30am 22.2 17.0 2.3 27 9.4 SSE 19 22 10 12 1017.7 1016.9 0.0
27/01:00am 22.8 17.3 1.8 25 9.9 SSE 20 22 11 12 1018.0 1017.2 0.0
27/12:30am 23.5 17.6 1.8 24 10.3 SSE 22 28 12 15 1018.1 1017.3 0.0
27/12:00am 23.8 18.2 1.4 23 10.5 SSE 20 26 11 14 1018.2 1017.4 0.0
 
Date/Time
EDT
Temp
°C
App
Temp
°C
Dew
Point
Rel
Hum
%
Delta-T
°C
Wind Press
QNH
hPa
Press
MSL
hPa
Rain
since 9 am
mm
Dir
 
Spd
km/h
Gust
km/h
Spd
kts
Gust
kts
26/11:30pm 24.3 18.3 1.2 22 10.9 S 22 30 12 16 1018.1 1017.3 0.0
26/11:00pm 24.7 18.7 0.9 21 11.2 SSE 22 26 12 14 1017.9 1017.1 0.0
26/10:30pm 25.0 19.3 0.5 20 11.5 SSE 20 26 11 14 1017.7 1016.9 0.0
26/10:00pm 25.5 20.3 0.2 19 11.8 S 17 20 9 11 1017.7 1016.9 0.0
26/09:30pm 26.1 20.8 -0.8 17 12.4 S 17 20 9 11 1017.4 1016.6 0.0
26/09:00pm 26.9 21.2 -1.0 16 12.9 S 19 24 10 13 1017.1 1016.3 0.0
26/08:30pm 27.6 21.1 -2.3 14 13.6 S 22 28 12 15 1016.7 1015.9 0.0
26/08:00pm 28.4 21.3 -1.6 14 13.8 SSE 26 33 14 18 1016.3 1015.6 0.0
26/07:30pm 29.2 21.6 -2.0 13 14.4 SSE 28 41 15 22 1016.2 1015.5 0.0
26/07:00pm 29.7 22.6 -1.6 13 14.6 SSE 26 39 14 21 1016.1 1015.4 0.0
26/06:30pm 30.1 23.0 -1.3 13 14.8 S 26 35 14 19 1015.8 1015.1 0.0
26/06:00pm 30.5 24.2 -1.0 13 14.9 S 22 35 12 19 1015.9 1015.2 0.0
26/05:30pm 29.8 24.0 -1.5 13 14.6 S 19 32 10 17 1016.0 1015.3 0.0
26/05:00pm 30.0 24.3 -3.6 11 15.2 S 17 30 9 16 1016.2 1015.5 0.0
26/04:30pm 30.8 24.8 -1.9 12 15.3 S 20 28 11 15 1016.3 1015.6 0.0
26/04:00pm 29.1 23.0 -2.1 13 14.3 S 20 32 11 17 1016.8 1016.0 0.0
26/03:30pm 29.2 23.7 -2.0 13 14.4 SSW 17 28 9 15 1016.9 1016.1 0.0
26/03:00pm 29.6 23.3 -3.9 11 15.0 S 20 30 11 16 1017.4 1016.6 0.0
26/02:30pm 29.0 22.9 -2.2 13 14.3 S 20 32 11 17 1017.8 1017.0 0.0
26/02:07pm 30.4 23.1 -0.1 14 14.7 S 28 39 15 21 1017.9 1017.1 0.0
26/02:00pm 28.6 25.3 0.3 16 13.5 S 7 17 4 9 1018.1 1017.3 0.0
26/01:30pm 28.0 23.5 -0.1 16 13.3 E 13 24 7 13 1018.4 1017.6 0.0
26/01:00pm 27.9 23.0 -0.2 16 13.2 SE 15 30 8 16 1018.7 1017.9 0.0
26/12:30pm 27.0 21.5 0.7 18 12.5 SE 19 30 10 16 1019.1 1018.3 0.0
26/12:00pm 26.9 20.8 0.6 18 12.5 S 22 30 12 16 1019.5 1018.7 0.0
26/11:30am 26.4 19.6 0.9 19 12.1 S 26 30 14 16 1019.6 1018.8 0.0
26/11:00am 26.1 20.0 0.7 19 12.0 ESE 22 30 12 16 1019.8 1019.0 0.0
26/10:30am 25.1 18.6 0.6 20 11.5 SE 24 33 13 18 1019.9 1019.1 0.0
26/10:00am 24.2 17.8 1.2 22 10.8 SE 24 32 13 17 1019.8 1019.0 0.0
26/09:30am 23.6 17.3 1.3 23 10.5 ESE 24 32 13 17 1019.9 1019.1 0.0
26/09:00am 22.3 16.3 1.3 25 9.7 ESE 22 32 12 17 1019.8 1019.0 0.2
26/08:30am 21.3 15.3 1.0 26 9.3 ESE 22 30 12 16 1019.6 1018.8 0.2
26/08:00am 20.0 14.1 1.4 29 8.5 ESE 22 28 12 15 1019.2 1018.4 0.2
26/07:30am 19.0 13.6 1.5 31 8.0 ESE 19 24 10 13 1019.0 1018.2 0.2
26/07:00am 17.8 12.9 1.7 34 7.3 ESE 17 22 9 12 1018.7 1017.9 0.2
26/06:30am 16.9 12.0 2.1 37 6.7 ESE 17 22 9 12 1018.3 1017.5 0.2
26/06:00am 16.6 11.7 2.2 38 6.5 ESE 17 20 9 11 1018.1 1017.3 0.2
26/05:30am 16.3 11.8 2.3 39 6.3 ESE 15 20 8 11 1017.9 1017.1 0.2
26/05:00am 14.8 10.3 2.0 42 5.7 ESE 15 17 8 9 1017.9 1017.1 0.2
26/04:30am 15.8 11.3 2.2 40 6.1 ESE 15 19 8 10 1017.8 1017.0 0.2
26/04:00am 16.6 12.4 1.5 36 6.7 ESE 13 17 7 9 1017.8 1017.0 0.2
26/03:30am 18.2 13.6 1.3 32 7.6 ESE 15 19 8 10 1017.7 1016.9 0.2
26/03:00am 18.6 13.0 1.2 31 7.8 SSE 20 26 11 14 1017.9 1017.1 0.2
26/02:30am 18.7 13.0 0.8 30 8.0 SSE 20 30 11 16 1018.0 1017.2 0.2
26/02:00am 18.8 13.3 0.9 30 8.0 SSE 19 24 10 13 1018.2 1017.4 0.2
26/01:30am 19.1 14.0 0.7 29 8.2 SSE 17 22 9 12 1018.6 1017.8 0.2
26/01:00am 19.5 14.0 0.5 28 8.5 SSE 19 24 10 13 1018.6 1017.8 0.2
26/12:30am 20.1 14.4 0.5 27 8.8 S 20 24 11 13 1018.6 1017.8 0.2
26/12:00am 20.7 14.9 0.0 25 9.2 S 20 24 11 13 1018.7 1017.9 0.2
 
Date/Time
EDT
Temp
°C
App
Temp
°C
Dew
Point
Rel
Hum
%
Delta-T
°C
Wind Press
QNH
hPa
Press
MSL
hPa
Rain
since 9 am
mm
Dir
 
Spd
km/h
Gust
km/h
Spd
kts
Gust
kts
25/11:30pm 21.0 15.4 0.2 25 9.4 SSE 19 24 10 13 1019.0 1018.2 0.2
25/11:00pm 21.8 16.3 0.4 24 9.7 SSE 19 22 10 12 1018.9 1018.1 0.2
25/10:30pm 21.8 16.8 1.5 26 9.4 SSE 17 20 9 11 1018.9 1018.1 0.2
25/10:00pm 22.2 17.9 1.3 25 9.7 SE 13 15 7 8 1018.6 1017.8 0.2
25/09:30pm 22.8 18.5 1.2 24 10.1 SE 13 15 7 8 1018.2 1017.4 0.2
25/09:00pm 23.5 19.6 1.2 23 10.4 SE 11 13 6 7 1018.2 1017.4 0.2

Other Formats:

Comma delimited format used in spreadsheet applications
http://www.bom.gov.au/fwo/IDN60801/IDN60801.95699.axf

JavaScript Object Notation format (JSON) in row-major order
http://www.bom.gov.au/fwo/IDN60801/IDN60801.95699.json